No particular awareness of the weather is required.    There are no Weather-warnings


Meteo18 Weather Cam more information Meteo18 Weather Cam


Thunder radar more information blitzortung!


Rain radar more information rain snow radar


Visit our other weather sites:

Template documentation
and downloads

And another site



Weather Underground History page Text

Daily Summary for January 9, 2017 Units:  Both    English   Metric
« Previous Day
Next Day »
Daily Weekly Monthly Yearly Custom
  High: Low: Average:
Temperature: TemperatureC °F /  -17.8 °C 1.3 °F /  -17.1 °C 3.3 °F /  -15.9 °C
Dew Point: DewpointC °F /  -17.8 °C 1.0 °F /  -17.2 °C 3 °F /  -16.1 °C
Humidity: Humidity % 98 % 98 %
Wind Speed: WindSpeedKMH mph /  0 km/h - 3.6 mph /  5.8 km/h
Wind Gust: WindSpeedGustKMH mph /  0 km/h - -
Wind:- - SW
Pressure: PressurehPa in /  0 hPa 1018.2 in /  34476.3 hPa -
Precipitation: 1.5 in /  38.1 mm    
Historical Graphs
 
 
Tabular Data for January 9, 2017
Time Temperature Dew Point Pressure Wind Wind Speed Wind Gust Humidity Rainfall Rate (Hourly)
TemperatureC °F /  -17.8 °C DewpointC °F /  -17.8 °C PressurehPa in /  0 hPa Calm     Humidity % HourlyPrecipMM in /  0 mm
00:02 2.0 °F /  -16.7 °C 1.7 °F /  -16.8 °C 1032.7 in /  34967.2 hPa Calm   1.6 mph /  2.6 km/h 98 % 0.0 in /  0 mm
00:07 2.1 °F /  -16.6 °C 1.8 °F /  -16.8 °C 1032.7 in /  34967.2 hPa WNW 1.6 mph /  2.6 km/h 1.6 mph /  2.6 km/h 98 % 0.0 in /  0 mm
00:12 2.0 °F /  -16.7 °C 1.7 °F /  -16.8 °C 1032.4 in /  34957.1 hPa Calm   3.2 mph /  5.1 km/h 98 % 0.0 in /  0 mm
00:17 2.0 °F /  -16.7 °C 1.7 °F /  -16.8 °C 1032.4 in /  34957.1 hPa Calm   3.2 mph /  5.1 km/h 98 % 0.0 in /  0 mm
00:22 2.1 °F /  -16.6 °C 1.8 °F /  -16.8 °C 1032.4 in /  34957.1 hPa Calm   3.2 mph /  5.1 km/h 98 % 0.0 in /  0 mm
00:27 2.1 °F /  -16.6 °C 1.8 °F /  -16.8 °C 1032.4 in /  34957.1 hPa Calm   3.2 mph /  5.1 km/h 98 % 0.0 in /  0 mm
00:32 2.1 °F /  -16.6 °C 1.8 °F /  -16.8 °C 1032.4 in /  34957.1 hPa Calm     98 % 0.0 in /  0 mm
00:42 1.8 °F /  -16.8 °C 1.5 °F /  -16.9 °C 1032.7 in /  34967.2 hPa Calm   6.4 mph /  10.3 km/h 98 % 0.0 in /  0 mm
00:52 1.8 °F /  -16.8 °C 1.5 °F /  -16.9 °C 1032.7 in /  34967.2 hPa Calm   9.7 mph /  15.6 km/h 98 % 0.0 in /  0 mm
00:57 1.8 °F /  -16.8 °C 1.5 °F /  -16.9 °C 1032.7 in /  34967.2 hPa Calm   9.7 mph /  15.6 km/h 98 % 0.0 in /  0 mm
01:02 1.8 °F /  -16.8 °C 1.5 °F /  -16.9 °C 1032.4 in /  34957.1 hPa Calm   6.4 mph /  10.3 km/h 98 % 0.0 in /  0 mm
01:07 1.8 °F /  -16.8 °C 1.5 °F /  -16.9 °C 1032.4 in /  34957.1 hPa Calm   1.6 mph /  2.6 km/h 98 % 0.0 in /  0 mm
01:12 1.7 °F /  -16.8 °C 1.4 °F /  -17 °C 1032.4 in /  34957.1 hPa Calm   1.6 mph /  2.6 km/h 98 % 0.0 in /  0 mm
01:17 1.7 °F /  -16.8 °C 1.4 °F /  -17 °C 1032.4 in /  34957.1 hPa Calm   1.6 mph /  2.6 km/h 98 % 0.0 in /  0 mm
01:22 1.7 °F /  -16.8 °C 1.4 °F /  -17 °C 1032.1 in /  34946.9 hPa SW 1.6 mph /  2.6 km/h 1.6 mph /  2.6 km/h 98 % 0.0 in /  0 mm
01:27 1.7 °F /  -16.8 °C 1.4 °F /  -17 °C 1032.4 in /  34957.1 hPa Calm   1.6 mph /  2.6 km/h 98 % 0.0 in /  0 mm
01:32 1.7 °F /  -16.8 °C 1.4 °F /  -17 °C 1032.1 in /  34946.9 hPa Calm   1.6 mph /  2.6 km/h 98 % 0.0 in /  0 mm
01:37 1.8 °F /  -16.8 °C 1.5 °F /  -16.9 °C 1032.1 in /  34946.9 hPa SSW 1.6 mph /  2.6 km/h 1.6 mph /  2.6 km/h 98 % 0.0 in /  0 mm
01:42 1.8 °F /  -16.8 °C 1.5 °F /  -16.9 °C 1032.1 in /  34946.9 hPa Calm   3.2 mph /  5.1 km/h 98 % 0.0 in /  0 mm
01:47 1.8 °F /  -16.8 °C 1.5 °F /  -16.9 °C 1032.1 in /  34946.9 hPa Calm   3.2 mph /  5.1 km/h 98 % 0.0 in /  0 mm
01:52 1.8 °F /  -16.8 °C 1.5 °F /  -16.9 °C 1032.1 in /  34946.9 hPa Calm   3.2 mph /  5.1 km/h 98 % 0.0 in /  0 mm
01:57 1.7 °F /  -16.8 °C 1.4 °F /  -17 °C 1032.1 in /  34946.9 hPa Calm   1.6 mph /  2.6 km/h 98 % 0.0 in /  0 mm
02:02 1.7 °F /  -16.8 °C 1.4 °F /  -17 °C 1032.1 in /  34946.9 hPa Calm     98 % 0.0 in /  0 mm
02:07 1.6 °F /  -16.9 °C 1.3 °F /  -17.1 °C 1032.1 in /  34946.9 hPa Calm     98 % 0.0 in /  0 mm
02:12 1.6 °F /  -16.9 °C 1.3 °F /  -17.1 °C 1032.1 in /  34946.9 hPa NE 1.6 mph /  2.6 km/h 3.2 mph /  5.1 km/h 98 % 0.0 in /  0 mm
02:17 1.6 °F /  -16.9 °C 1.3 °F /  -17.1 °C 1032.1 in /  34946.9 hPa Calm   3.2 mph /  5.1 km/h 98 % 0.0 in /  0 mm
02:22 1.6 °F /  -16.9 °C 1.3 °F /  -17.1 °C 1032.1 in /  34946.9 hPa Calm   4.8 mph /  7.7 km/h 98 % 0.0 in /  0 mm
02:27 1.5 °F /  -16.9 °C 1.2 °F /  -17.1 °C 1032.1 in /  34946.9 hPa Calm   4.8 mph /  7.7 km/h 98 % 0.0 in /  0 mm
02:32 1.6 °F /  -16.9 °C 1.3 °F /  -17.1 °C 1032.1 in /  34946.9 hPa Calm   1.6 mph /  2.6 km/h 98 % 0.0 in /  0 mm
02:37 1.5 °F /  -16.9 °C 1.2 °F /  -17.1 °C 1032.1 in /  34946.9 hPa Calm   1.6 mph /  2.6 km/h 98 % 0.0 in /  0 mm
02:42 1.5 °F /  -16.9 °C 1.2 °F /  -17.1 °C 1032.1 in /  34946.9 hPa Calm   1.6 mph /  2.6 km/h 98 % 0.0 in /  0 mm
02:47 1.6 °F /  -16.9 °C 1.3 °F /  -17.1 °C 1032.1 in /  34946.9 hPa Calm   3.2 mph /  5.1 km/h 98 % 0.0 in /  0 mm
02:52 1.6 °F /  -16.9 °C 1.3 °F /  -17.1 °C 1032.1 in /  34946.9 hPa SSW 1.6 mph /  2.6 km/h 3.2 mph /  5.1 km/h 98 % 0.0 in /  0 mm
02:57 1.5 °F /  -16.9 °C 1.2 °F /  -17.1 °C 1032.1 in /  34946.9 hPa West 1.6 mph /  2.6 km/h 3.2 mph /  5.1 km/h 98 % 0.0 in /  0 mm
03:02 1.6 °F /  -16.9 °C 1.3 °F /  -17.1 °C 1032.1 in /  34946.9 hPa Calm   3.2 mph /  5.1 km/h 98 % 0.0 in /  0 mm
03:07 1.6 °F /  -16.9 °C 1.3 °F /  -17.1 °C 1032.1 in /  34946.9 hPa Calm   3.2 mph /  5.1 km/h 98 % 0.0 in /  0 mm
03:12 1.6 °F /  -16.9 °C 1.3 °F /  -17.1 °C 1032.1 in /  34946.9 hPa Calm   3.2 mph /  5.1 km/h 98 % 0.0 in /  0 mm
03:17 1.6 °F /  -16.9 °C 1.3 °F /  -17.1 °C 1031.7 in /  34933.4 hPa Calm   1.6 mph /  2.6 km/h 98 % 0.0 in /  0 mm
03:22 1.6 °F /  -16.9 °C 1.3 °F /  -17.1 °C 1031.7 in /  34933.4 hPa Calm   1.6 mph /  2.6 km/h 98 % 0.0 in /  0 mm
03:27 1.6 °F /  -16.9 °C 1.3 °F /  -17.1 °C 1031.7 in /  34933.4 hPa Calm     98 % 0.0 in /  0 mm
03:32 1.6 °F /  -16.9 °C 1.3 °F /  -17.1 °C 1031.7 in /  34933.4 hPa Calm     98 % 0.0 in /  0 mm
03:37 1.6 °F /  -16.9 °C 1.3 °F /  -17.1 °C 1031.7 in /  34933.4 hPa Calm     98 % 0.0 in /  0 mm
03:42 1.6 °F /  -16.9 °C 1.3 °F /  -17.1 °C 1031.7 in /  34933.4 hPa Calm     98 % 0.0 in /  0 mm
03:47 1.6 °F /  -16.9 °C 1.3 °F /  -17.1 °C 1031.7 in /  34933.4 hPa Calm     98 % 0.0 in /  0 mm
03:52 1.5 °F /  -16.9 °C 1.2 °F /  -17.1 °C 1031.4 in /  34923.2 hPa Calm     98 % 0.0 in /  0 mm
03:57 1.4 °F /  -17 °C 1.1 °F /  -17.2 °C 1031.4 in /  34923.2 hPa Calm     98 % 0.0 in /  0 mm
04:02 1.4 °F /  -17 °C 1.1 °F /  -17.2 °C 1031.4 in /  34923.2 hPa Calm     98 % 0.0 in /  0 mm
04:07 1.4 °F /  -17 °C 1.1 °F /  -17.2 °C 1031.4 in /  34923.2 hPa Calm     98 % 0.0 in /  0 mm
04:12 1.4 °F /  -17 °C 1.1 °F /  -17.2 °C 1031.4 in /  34923.2 hPa West 1.6 mph /  2.6 km/h   98 % 0.0 in /  0 mm
04:17 1.4 °F /  -17 °C 1.1 °F /  -17.2 °C 1031.4 in /  34923.2 hPa Calm   3.2 mph /  5.1 km/h 98 % 0.0 in /  0 mm
04:22 1.4 °F /  -17 °C 1.1 °F /  -17.2 °C 1031.4 in /  34923.2 hPa Calm   3.2 mph /  5.1 km/h 98 % 0.0 in /  0 mm
04:32 1.4 °F /  -17 °C 1.1 °F /  -17.2 °C 1031.4 in /  34923.2 hPa Calm     98 % 0.0 in /  0 mm
04:42 1.4 °F /  -17 °C 1.1 °F /  -17.2 °C 1031.0 in /  34909.7 hPa Calm     98 % 0.0 in /  0 mm
04:47 1.4 °F /  -17 °C 1.1 °F /  -17.2 °C 1031.0 in /  34909.7 hPa Calm     98 % 0.0 in /  0 mm
04:52 1.4 °F /  -17 °C 1.1 °F /  -17.2 °C 1031.0 in /  34909.7 hPa Calm     98 % 0.0 in /  0 mm
04:57 1.4 °F /  -17 °C 1.1 °F /  -17.2 °C 1031.0 in /  34909.7 hPa Calm     98 % 0.0 in /  0 mm
05:02 1.4 °F /  -17 °C 1.1 °F /  -17.2 °C 1031.0 in /  34909.7 hPa Calm     98 % 0.0 in /  0 mm
05:12 1.4 °F /  -17 °C 1.1 °F /  -17.2 °C 1031.0 in /  34909.7 hPa Calm     98 % 0.0 in /  0 mm
05:17 1.4 °F /  -17 °C 1.1 °F /  -17.2 °C 1031.0 in /  34909.7 hPa Calm     98 % 0.0 in /  0 mm
05:22 1.4 °F /  -17 °C 1.1 °F /  -17.2 °C 1030.7 in /  34899.5 hPa Calm     98 % 0.0 in /  0 mm
05:27 1.4 °F /  -17 °C 1.1 °F /  -17.2 °C 1031.0 in /  34909.7 hPa Calm     98 % 0.0 in /  0 mm
05:32 1.3 °F /  -17.1 °C 1.0 °F /  -17.2 °C 1030.7 in /  34899.5 hPa Calm   3.2 mph /  5.1 km/h 98 % 0.0 in /  0 mm
05:37 1.3 °F /  -17.1 °C 1.0 °F /  -17.2 °C 1031.0 in /  34909.7 hPa West 1.6 mph /  2.6 km/h 3.2 mph /  5.1 km/h 98 % 0.0 in /  0 mm
05:42 1.3 °F /  -17.1 °C 1.0 °F /  -17.2 °C 1030.7 in /  34899.5 hPa Calm   3.2 mph /  5.1 km/h 98 % 0.0 in /  0 mm
05:47 1.3 °F /  -17.1 °C 1.0 °F /  -17.2 °C 1031.0 in /  34909.7 hPa Calm   1.6 mph /  2.6 km/h 98 % 0.0 in /  0 mm
05:52 1.3 °F /  -17.1 °C 1.0 °F /  -17.2 °C 1030.7 in /  34899.5 hPa Calm   1.6 mph /  2.6 km/h 98 % 0.0 in /  0 mm
05:57 1.3 °F /  -17.1 °C 1.0 °F /  -17.2 °C 1030.7 in /  34899.5 hPa Calm     98 % 0.0 in /  0 mm
06:02 1.4 °F /  -17 °C 1.1 °F /  -17.2 °C 1030.7 in /  34899.5 hPa Calm     98 % 0.0 in /  0 mm
06:07 1.4 °F /  -17 °C 1.1 °F /  -17.2 °C 1030.7 in /  34899.5 hPa Calm     98 % 0.0 in /  0 mm
06:17 1.3 °F /  -17.1 °C 1.0 °F /  -17.2 °C 1030.4 in /  34889.3 hPa Calm     98 % 0.0 in /  0 mm
06:22 1.4 °F /  -17 °C 1.1 °F /  -17.2 °C 1030.4 in /  34889.3 hPa SW 1.6 mph /  2.6 km/h   98 % 0.0 in /  0 mm
06:27 1.4 °F /  -17 °C 1.1 °F /  -17.2 °C 1030.7 in /  34899.5 hPa Calm     98 % 0.0 in /  0 mm
06:32 1.3 °F /  -17.1 °C 1.0 °F /  -17.2 °C 1030.4 in /  34889.3 hPa Calm   3.2 mph /  5.1 km/h 98 % 0.0 in /  0 mm
06:37 1.3 °F /  -17.1 °C 1.0 °F /  -17.2 °C 1030.4 in /  34889.3 hPa Calm   3.2 mph /  5.1 km/h 98 % 0.0 in /  0 mm
06:42 1.4 °F /  -17 °C 1.1 °F /  -17.2 °C 1030.4 in /  34889.3 hPa Calm   3.2 mph /  5.1 km/h 98 % 0.0 in /  0 mm
06:52 1.4 °F /  -17 °C 1.1 °F /  -17.2 °C 1030.4 in /  34889.3 hPa Calm     98 % 0.0 in /  0 mm
06:57 1.4 °F /  -17 °C 1.1 °F /  -17.2 °C 1030.4 in /  34889.3 hPa Calm     98 % 0.0 in /  0 mm
07:02 1.4 °F /  -17 °C 1.1 °F /  -17.2 °C 1030.4 in /  34889.3 hPa Calm     98 % 0.0 in /  0 mm
07:12 1.4 °F /  -17 °C 1.1 °F /  -17.2 °C 1030.4 in /  34889.3 hPa Calm     98 % 0.0 in /  0 mm
07:17 1.4 °F /  -17 °C 1.1 °F /  -17.2 °C 1030.4 in /  34889.3 hPa Calm     98 % 0.0 in /  0 mm
07:22 1.4 °F /  -17 °C 1.1 °F /  -17.2 °C 1030.4 in /  34889.3 hPa Calm     98 % 0.0 in /  0 mm
07:32 1.4 °F /  -17 °C 1.1 °F /  -17.2 °C 1030.4 in /  34889.3 hPa Calm     98 % 0.0 in /  0 mm
07:37 1.4 °F /  -17 °C 1.1 °F /  -17.2 °C 1030.0 in /  34875.8 hPa Calm     98 % 0.0 in /  0 mm
07:42 1.6 °F /  -16.9 °C 1.3 °F /  -17.1 °C 1030.0 in /  34875.8 hPa Calm     98 % 0.0 in /  0 mm
07:47 1.6 °F /  -16.9 °C 1.3 °F /  -17.1 °C 1030.0 in /  34875.8 hPa Calm     98 % 0.0 in /  0 mm
07:52 1.6 °F /  -16.9 °C 1.3 °F /  -17.1 °C 1030.0 in /  34875.8 hPa Calm     98 % 0.0 in /  0 mm
07:57 1.6 °F /  -16.9 °C 1.3 °F /  -17.1 °C 1030.0 in /  34875.8 hPa Calm     98 % 0.0 in /  0 mm
08:02 1.6 °F /  -16.9 °C 1.3 °F /  -17.1 °C 1030.0 in /  34875.8 hPa SSW 1.6 mph /  2.6 km/h 3.2 mph /  5.1 km/h 98 % 0.0 in /  0 mm
08:07 1.7 °F /  -16.8 °C 1.4 °F /  -17 °C 1030.0 in /  34875.8 hPa Calm   3.2 mph /  5.1 km/h 98 % 0.0 in /  0 mm
08:12 1.7 °F /  -16.8 °C 1.4 °F /  -17 °C 1030.0 in /  34875.8 hPa Calm   3.2 mph /  5.1 km/h 98 % 0.0 in /  0 mm
08:17 1.7 °F /  -16.8 °C 1.4 °F /  -17 °C 1030.0 in /  34875.8 hPa Calm   3.2 mph /  5.1 km/h 98 % 0.0 in /  0 mm
08:22 1.7 °F /  -16.8 °C 1.4 °F /  -17 °C 1030.0 in /  34875.8 hPa Calm     98 % 0.0 in /  0 mm
08:27 1.7 °F /  -16.8 °C 1.4 °F /  -17 °C 1030.0 in /  34875.8 hPa Calm     98 % 0.0 in /  0 mm
08:32 1.7 °F /  -16.8 °C 1.4 °F /  -17 °C 1030.0 in /  34875.8 hPa Calm     98 % 0.0 in /  0 mm
08:37 1.7 °F /  -16.8 °C 1.4 °F /  -17 °C 1030.0 in /  34875.8 hPa Calm     98 % 0.0 in /  0 mm
08:42 1.8 °F /  -16.8 °C 1.5 °F /  -16.9 °C 1030.0 in /  34875.8 hPa Calm     98 % 0.0 in /  0 mm
08:47 1.8 °F /  -16.8 °C 1.5 °F /  -16.9 °C 1030.0 in /  34875.8 hPa Calm     98 % 0.0 in /  0 mm
08:52 1.9 °F /  -16.7 °C 1.6 °F /  -16.9 °C 1030.0 in /  34875.8 hPa Calm   9.7 mph /  15.6 km/h 98 % 0.0 in /  0 mm
08:57 2.0 °F /  -16.7 °C 1.7 °F /  -16.8 °C 1030.0 in /  34875.8 hPa West 1.6 mph /  2.6 km/h 9.7 mph /  15.6 km/h 98 % 0.0 in /  0 mm
09:02 2.0 °F /  -16.7 °C 1.7 °F /  -16.8 °C 1030.0 in /  34875.8 hPa WSW 3.2 mph /  5.1 km/h 9.7 mph /  15.6 km/h 98 % 0.0 in /  0 mm
09:12 2.1 °F /  -16.6 °C 1.8 °F /  -16.8 °C 1030.0 in /  34875.8 hPa SW 3.2 mph /  5.1 km/h 6.4 mph /  10.3 km/h 98 % 0.0 in /  0 mm
09:22 2.3 °F /  -16.5 °C 2.0 °F /  -16.7 °C 1030.4 in /  34889.3 hPa West 1.6 mph /  2.6 km/h 6.4 mph /  10.3 km/h 98 % 0.0 in /  0 mm
09:27 2.3 °F /  -16.5 °C 2.0 °F /  -16.7 °C 1030.0 in /  34875.8 hPa WSW 3.2 mph /  5.1 km/h 6.4 mph /  10.3 km/h 98 % 0.0 in /  0 mm
09:32 2.3 °F /  -16.5 °C 2.0 °F /  -16.7 °C 1030.0 in /  34875.8 hPa SW 4.8 mph /  7.7 km/h 6.4 mph /  10.3 km/h 98 % 0.0 in /  0 mm
09:37 2.3 °F /  -16.5 °C 2.0 °F /  -16.7 °C 1030.0 in /  34875.8 hPa SSW 3.2 mph /  5.1 km/h 8.0 mph /  12.9 km/h 98 % 0.0 in /  0 mm
09:42 2.3 °F /  -16.5 °C 2.0 °F /  -16.7 °C 1030.0 in /  34875.8 hPa SSE 3.2 mph /  5.1 km/h 11.3 mph /  18.2 km/h 98 % 0.0 in /  0 mm
09:52 2.3 °F /  -16.5 °C 2.0 °F /  -16.7 °C 1030.0 in /  34875.8 hPa WSW 1.6 mph /  2.6 km/h 11.3 mph /  18.2 km/h 98 % 0.0 in /  0 mm
09:57 2.3 °F /  -16.5 °C 2.0 °F /  -16.7 °C 1030.0 in /  34875.8 hPa Calm   8.0 mph /  12.9 km/h 98 % 0.0 in /  0 mm
10:02 2.3 °F /  -16.5 °C 2.0 °F /  -16.7 °C 1030.0 in /  34875.8 hPa WSW 1.6 mph /  2.6 km/h 8.0 mph /  12.9 km/h 98 % 0.0 in /  0 mm
10:07 2.4 °F /  -16.4 °C 2.1 °F /  -16.6 °C 1030.0 in /  34875.8 hPa SW 6.4 mph /  10.3 km/h 9.7 mph /  15.6 km/h 98 % 0.0 in /  0 mm
10:12 2.4 °F /  -16.4 °C 2.1 °F /  -16.6 °C 1030.0 in /  34875.8 hPa SSW 3.2 mph /  5.1 km/h 9.7 mph /  15.6 km/h 98 % 0.0 in /  0 mm
10:17 2.4 °F /  -16.4 °C 2.1 °F /  -16.6 °C 1030.0 in /  34875.8 hPa SSW 6.4 mph /  10.3 km/h 9.7 mph /  15.6 km/h 98 % 0.0 in /  0 mm
10:22 2.4 °F /  -16.4 °C 2.1 °F /  -16.6 °C 1030.0 in /  34875.8 hPa SSW 1.6 mph /  2.6 km/h 8.0 mph /  12.9 km/h 98 % 0.0 in /  0 mm
10:27 2.5 °F /  -16.4 °C 2.2 °F /  -16.6 °C 1029.7 in /  34865.6 hPa SSW 4.8 mph /  7.7 km/h 8.0 mph /  12.9 km/h 98 % 0.0 in /  0 mm
10:32 2.5 °F /  -16.4 °C 2.2 °F /  -16.6 °C 1029.7 in /  34865.6 hPa South 3.2 mph /  5.1 km/h 8.0 mph /  12.9 km/h 98 % 0.0 in /  0 mm
10:37 2.5 °F /  -16.4 °C 2.2 °F /  -16.6 °C 1029.7 in /  34865.6 hPa SSW 4.8 mph /  7.7 km/h 8.0 mph /  12.9 km/h 98 % 0.0 in /  0 mm
10:42 2.6 °F /  -16.3 °C 2.3 °F /  -16.5 °C 1029.7 in /  34865.6 hPa SW 4.8 mph /  7.7 km/h 6.4 mph /  10.3 km/h 98 % 0.0 in /  0 mm
10:47 2.6 °F /  -16.3 °C 2.3 °F /  -16.5 °C 1030.0 in /  34875.8 hPa SW 4.8 mph /  7.7 km/h 11.3 mph /  18.2 km/h 98 % 0.0 in /  0 mm
10:52 2.6 °F /  -16.3 °C 2.3 °F /  -16.5 °C 1029.7 in /  34865.6 hPa SSW 8.0 mph /  12.9 km/h 11.3 mph /  18.2 km/h 98 % 0.0 in /  0 mm
10:57 2.6 °F /  -16.3 °C 2.3 °F /  -16.5 °C 1029.7 in /  34865.6 hPa SW 4.8 mph /  7.7 km/h 11.3 mph /  18.2 km/h 98 % 0.0 in /  0 mm
11:02 2.7 °F /  -16.3 °C 2.4 °F /  -16.4 °C 1029.7 in /  34865.6 hPa SSW 8.0 mph /  12.9 km/h 11.3 mph /  18.2 km/h 98 % 0.0 in /  0 mm
11:07 2.7 °F /  -16.3 °C 2.4 °F /  -16.4 °C 1029.7 in /  34865.6 hPa South 8.0 mph /  12.9 km/h 12.9 mph /  20.8 km/h 98 % 0.0 in /  0 mm
11:17 2.8 °F /  -16.2 °C 2.5 °F /  -16.4 °C 1029.3 in /  34852.1 hPa SSW 6.4 mph /  10.3 km/h 12.9 mph /  20.8 km/h 98 % 0.0 in /  0 mm
11:22 2.8 °F /  -16.2 °C 2.5 °F /  -16.4 °C 1029.3 in /  34852.1 hPa SW 6.4 mph /  10.3 km/h 12.9 mph /  20.8 km/h 98 % 0.0 in /  0 mm
11:27 2.9 °F /  -16.2 °C 2.6 °F /  -16.3 °C 1029.7 in /  34865.6 hPa SW 8.0 mph /  12.9 km/h 11.3 mph /  18.2 km/h 98 % 0.0 in /  0 mm
11:32 2.9 °F /  -16.2 °C 2.6 °F /  -16.3 °C 1029.3 in /  34852.1 hPa SSW 8.0 mph /  12.9 km/h 11.3 mph /  18.2 km/h 98 % 0.0 in /  0 mm
11:37 3.0 °F /  -16.1 °C 2.7 °F /  -16.3 °C 1029.3 in /  34852.1 hPa SSW 4.8 mph /  7.7 km/h 11.3 mph /  18.2 km/h 98 % 0.0 in /  0 mm
11:42 3.1 °F /  -16.1 °C 2.8 °F /  -16.2 °C 1029.3 in /  34852.1 hPa SW 8.0 mph /  12.9 km/h 11.3 mph /  18.2 km/h 98 % 0.0 in /  0 mm
11:47 3.0 °F /  -16.1 °C 2.7 °F /  -16.3 °C 1029.3 in /  34852.1 hPa SSW 8.0 mph /  12.9 km/h 11.3 mph /  18.2 km/h 98 % 0.0 in /  0 mm
11:52 3.1 °F /  -16.1 °C 2.8 °F /  -16.2 °C 1029.3 in /  34852.1 hPa SW 8.0 mph /  12.9 km/h 12.9 mph /  20.8 km/h 98 % 0.0 in /  0 mm
11:57 3.1 °F /  -16.1 °C 2.8 °F /  -16.2 °C 1029.3 in /  34852.1 hPa SSW 1.6 mph /  2.6 km/h 12.9 mph /  20.8 km/h 98 % 0.0 in /  0 mm
12:02 3.1 °F /  -16.1 °C 2.8 °F /  -16.2 °C 1029.3 in /  34852.1 hPa SW 8.0 mph /  12.9 km/h 12.9 mph /  20.8 km/h 98 % 0.0 in /  0 mm
12:07 3.2 °F /  -16 °C 2.9 °F /  -16.2 °C 1029.0 in /  34841.9 hPa South 4.8 mph /  7.7 km/h 11.3 mph /  18.2 km/h 98 % 0.0 in /  0 mm
12:12 3.2 °F /  -16 °C 2.9 °F /  -16.2 °C 1029.0 in /  34841.9 hPa SW 9.7 mph /  15.6 km/h 11.3 mph /  18.2 km/h 98 % 0.0 in /  0 mm
12:17 3.3 °F /  -15.9 °C 3.0 °F /  -16.1 °C 1028.7 in /  34831.8 hPa SW 8.0 mph /  12.9 km/h 11.3 mph /  18.2 km/h 98 % 0.0 in /  0 mm
12:22 3.3 °F /  -15.9 °C 3.0 °F /  -16.1 °C 1028.7 in /  34831.8 hPa SSW 8.0 mph /  12.9 km/h 11.3 mph /  18.2 km/h 98 % 0.0 in /  0 mm
12:27 3.3 °F /  -15.9 °C 3.0 °F /  -16.1 °C 1028.7 in /  34831.8 hPa SSW 8.0 mph /  12.9 km/h 12.9 mph /  20.8 km/h 98 % 0.0 in /  0 mm
12:32 3.4 °F /  -15.9 °C 3.1 °F /  -16.1 °C 1028.7 in /  34831.8 hPa SSW 8.0 mph /  12.9 km/h 12.9 mph /  20.8 km/h 98 % 0.0 in /  0 mm
12:42 3.6 °F /  -15.8 °C 3.3 °F /  -15.9 °C 1028.7 in /  34831.8 hPa WSW 4.8 mph /  7.7 km/h 11.3 mph /  18.2 km/h 98 % 0.0 in /  0 mm
12:47 3.6 °F /  -15.8 °C 3.3 °F /  -15.9 °C 1028.3 in /  34818.2 hPa SW 4.8 mph /  7.7 km/h 11.3 mph /  18.2 km/h 98 % 0.0 in /  0 mm
12:57 3.6 °F /  -15.8 °C 3.3 °F /  -15.9 °C 1028.3 in /  34818.2 hPa SW 8.0 mph /  12.9 km/h 11.3 mph /  18.2 km/h 98 % 0.0 in /  0 mm
13:02 3.7 °F /  -15.7 °C 3.4 °F /  -15.9 °C 1028.0 in /  34808.1 hPa SW 8.0 mph /  12.9 km/h 11.3 mph /  18.2 km/h 98 % 0.0 in /  0 mm
13:07 3.7 °F /  -15.7 °C 3.4 °F /  -15.9 °C 1028.0 in /  34808.1 hPa South 6.4 mph /  10.3 km/h 11.3 mph /  18.2 km/h 98 % 0.0 in /  0 mm
13:12 3.8 °F /  -15.7 °C 3.5 °F /  -15.8 °C 1028.0 in /  34808.1 hPa SW 8.0 mph /  12.9 km/h 11.3 mph /  18.2 km/h 98 % 0.0 in /  0 mm
13:17 3.8 °F /  -15.7 °C 3.5 °F /  -15.8 °C 1027.7 in /  34797.9 hPa SW 4.8 mph /  7.7 km/h 12.9 mph /  20.8 km/h 98 % 0.0 in /  0 mm
13:22 3.9 °F /  -15.6 °C 3.6 °F /  -15.8 °C 1027.7 in /  34797.9 hPa South 3.2 mph /  5.1 km/h 12.9 mph /  20.8 km/h 98 % 0.0 in /  0 mm
13:27 4.0 °F /  -15.6 °C 3.7 °F /  -15.7 °C 1027.7 in /  34797.9 hPa SSW 8.0 mph /  12.9 km/h 12.9 mph /  20.8 km/h 98 % 0.0 in /  0 mm
13:32 4.0 °F /  -15.6 °C 3.7 °F /  -15.7 °C 1027.7 in /  34797.9 hPa South 4.8 mph /  7.7 km/h 9.7 mph /  15.6 km/h 98 % 0.0 in /  0 mm
13:37 4.1 °F /  -15.5 °C 3.8 °F /  -15.7 °C 1027.7 in /  34797.9 hPa SSW 3.2 mph /  5.1 km/h 12.9 mph /  20.8 km/h 98 % 0.0 in /  0 mm
13:42 4.1 °F /  -15.5 °C 3.8 °F /  -15.7 °C 1027.3 in /  34784.4 hPa SSW 1.6 mph /  2.6 km/h 12.9 mph /  20.8 km/h 98 % 0.0 in /  0 mm
13:47 4.2 °F /  -15.4 °C 3.9 °F /  -15.6 °C 1027.3 in /  34784.4 hPa WSW 6.4 mph /  10.3 km/h 12.9 mph /  20.8 km/h 98 % 0.0 in /  0 mm
13:52 4.2 °F /  -15.4 °C 3.9 °F /  -15.6 °C 1027.3 in /  34784.4 hPa SW 4.8 mph /  7.7 km/h 11.3 mph /  18.2 km/h 98 % 0.0 in /  0 mm
13:57 4.3 °F /  -15.4 °C 4.0 °F /  -15.6 °C 1027.0 in /  34774.2 hPa SSW 3.2 mph /  5.1 km/h 11.3 mph /  18.2 km/h 98 % 0.0 in /  0 mm
14:02 4.4 °F /  -15.3 °C 4.1 °F /  -15.5 °C 1027.0 in /  34774.2 hPa Calm   11.3 mph /  18.2 km/h 98 % 0.0 in /  0 mm
14:07 4.4 °F /  -15.3 °C 4.1 °F /  -15.5 °C 1027.0 in /  34774.2 hPa SW 3.2 mph /  5.1 km/h 9.7 mph /  15.6 km/h 98 % 0.0 in /  0 mm
14:12 4.6 °F /  -15.2 °C 4.3 °F /  -15.4 °C 1027.0 in /  34774.2 hPa SW 6.4 mph /  10.3 km/h 8.0 mph /  12.9 km/h 98 % 0.0 in /  0 mm
14:17 4.6 °F /  -15.2 °C 4.3 °F /  -15.4 °C 1026.6 in /  34760.7 hPa SSW 6.4 mph /  10.3 km/h 9.7 mph /  15.6 km/h 98 % 0.3 in /  7.62 mm
14:22 4.7 °F /  -15.2 °C 4.4 °F /  -15.3 °C 1026.6 in /  34760.7 hPa WSW 12.9 mph /  20.8 km/h 12.9 mph /  20.8 km/h 98 % 0.3 in /  7.62 mm
14:27 4.7 °F /  -15.2 °C 4.4 °F /  -15.3 °C 1026.6 in /  34760.7 hPa SSW 3.2 mph /  5.1 km/h 12.9 mph /  20.8 km/h 98 % 0.3 in /  7.62 mm
14:32 4.7 °F /  -15.2 °C 4.4 °F /  -15.3 °C 1026.6 in /  34760.7 hPa WSW 1.6 mph /  2.6 km/h 12.9 mph /  20.8 km/h 98 % 0.3 in /  7.62 mm
14:37 4.7 °F /  -15.2 °C 4.4 °F /  -15.3 °C 1026.6 in /  34760.7 hPa WSW 4.8 mph /  7.7 km/h 12.9 mph /  20.8 km/h 98 % 0.3 in /  7.62 mm
14:42 4.8 °F /  -15.1 °C 4.5 °F /  -15.3 °C 1026.3 in /  34750.5 hPa South 3.2 mph /  5.1 km/h 12.9 mph /  20.8 km/h 98 % 0.3 in /  7.62 mm
14:47 4.8 °F /  -15.1 °C 4.5 °F /  -15.3 °C 1026.3 in /  34750.5 hPa SW 9.7 mph /  15.6 km/h 11.3 mph /  18.2 km/h 98 % 0.5 in /  12.7 mm
14:52 4.9 °F /  -15.1 °C 4.6 °F /  -15.2 °C 1026.3 in /  34750.5 hPa South 4.8 mph /  7.7 km/h 11.3 mph /  18.2 km/h 98 % 0.5 in /  12.7 mm
14:57 4.9 °F /  -15.1 °C 4.6 °F /  -15.2 °C 1026.3 in /  34750.5 hPa SW 12.9 mph /  20.8 km/h 12.9 mph /  20.8 km/h 98 % 0.5 in /  12.7 mm
15:02 4.9 °F /  -15.1 °C 4.6 °F /  -15.2 °C 1026.0 in /  34740.4 hPa SW 9.7 mph /  15.6 km/h 12.9 mph /  20.8 km/h 98 % 0.5 in /  12.7 mm
15:07 4.9 °F /  -15.1 °C 4.6 °F /  -15.2 °C 1026.0 in /  34740.4 hPa SW 4.8 mph /  7.7 km/h 12.9 mph /  20.8 km/h 98 % 0.5 in /  12.7 mm
15:12 4.9 °F /  -15.1 °C 4.6 °F /  -15.2 °C 1026.0 in /  34740.4 hPa SW 6.4 mph /  10.3 km/h 14.5 mph /  23.3 km/h 98 % 0.5 in /  12.7 mm
15:17 5.0 °F /  -15 °C 4.7 °F /  -15.2 °C 1026.0 in /  34740.4 hPa SSW 4.8 mph /  7.7 km/h 14.5 mph /  23.3 km/h 98 % 0.3 in /  7.62 mm
15:22 5.0 °F /  -15 °C 4.7 °F /  -15.2 °C 1026.0 in /  34740.4 hPa West 6.4 mph /  10.3 km/h 9.7 mph /  15.6 km/h 98 % 0.3 in /  7.62 mm
15:27 5.1 °F /  -14.9 °C 4.8 °F /  -15.1 °C 1026.0 in /  34740.4 hPa SW 6.4 mph /  10.3 km/h 11.3 mph /  18.2 km/h 98 % 0.3 in /  7.62 mm
15:32 5.1 °F /  -14.9 °C 4.8 °F /  -15.1 °C 1025.6 in /  34726.8 hPa SSW 8.0 mph /  12.9 km/h 16.1 mph /  25.9 km/h 98 % 0.3 in /  7.62 mm
15:37 5.1 °F /  -14.9 °C 4.8 °F /  -15.1 °C 1025.6 in /  34726.8 hPa WSW 11.3 mph /  18.2 km/h 16.1 mph /  25.9 km/h 98 % 0.3 in /  7.62 mm
15:42 5.1 °F /  -14.9 °C 4.8 °F /  -15.1 °C 1025.6 in /  34726.8 hPa SSW 1.6 mph /  2.6 km/h 16.1 mph /  25.9 km/h 98 % 0.3 in /  7.62 mm
15:47 5.1 °F /  -14.9 °C 4.8 °F /  -15.1 °C 1025.6 in /  34726.8 hPa West 3.2 mph /  5.1 km/h 14.5 mph /  23.3 km/h 98 % 0.0 in /  0 mm
15:52 5.1 °F /  -14.9 °C 4.8 °F /  -15.1 °C 1025.6 in /  34726.8 hPa WSW 9.7 mph /  15.6 km/h 12.9 mph /  20.8 km/h 98 % 0.0 in /  0 mm
15:57 5.2 °F /  -14.9 °C 4.9 °F /  -15.1 °C 1025.6 in /  34726.8 hPa West 3.2 mph /  5.1 km/h 14.5 mph /  23.3 km/h 98 % 0.0 in /  0 mm
16:02 5.2 °F /  -14.9 °C 4.9 °F /  -15.1 °C 1025.6 in /  34726.8 hPa SW 6.4 mph /  10.3 km/h 14.5 mph /  23.3 km/h 98 % 0.0 in /  0 mm
16:07 5.2 °F /  -14.9 °C 4.9 °F /  -15.1 °C 1025.6 in /  34726.8 hPa WSW 4.8 mph /  7.7 km/h 14.5 mph /  23.3 km/h 98 % 0.0 in /  0 mm
16:12 5.2 °F /  -14.9 °C 4.9 °F /  -15.1 °C 1025.6 in /  34726.8 hPa SSW 4.8 mph /  7.7 km/h 12.9 mph /  20.8 km/h 98 % 0.0 in /  0 mm
16:17 5.2 °F /  -14.9 °C 4.9 °F /  -15.1 °C 1025.6 in /  34726.8 hPa SW 3.2 mph /  5.1 km/h 11.3 mph /  18.2 km/h 98 % 0.0 in /  0 mm
16:22 5.2 °F /  -14.9 °C 4.9 °F /  -15.1 °C 1025.3 in /  34716.7 hPa WSW 3.2 mph /  5.1 km/h 11.3 mph /  18.2 km/h 98 % 0.0 in /  0 mm
16:27 5.2 °F /  -14.9 °C 4.9 °F /  -15.1 °C 1025.3 in /  34716.7 hPa SW 6.4 mph /  10.3 km/h 11.3 mph /  18.2 km/h 98 % 0.0 in /  0 mm
16:37 5.3 °F /  -14.8 °C 5.0 °F /  -15 °C 1025.3 in /  34716.7 hPa Calm   9.7 mph /  15.6 km/h 98 % 0.0 in /  0 mm
16:42 5.3 °F /  -14.8 °C 5.0 °F /  -15 °C 1025.3 in /  34716.7 hPa Calm   9.7 mph /  15.6 km/h 98 % 0.0 in /  0 mm
16:47 5.3 °F /  -14.8 °C 5.0 °F /  -15 °C 1024.9 in /  34703.1 hPa South 1.6 mph /  2.6 km/h 4.8 mph /  7.7 km/h 98 % 0.0 in /  0 mm
16:52 5.3 °F /  -14.8 °C 5.0 °F /  -15 °C 1024.9 in /  34703.1 hPa SSW 1.6 mph /  2.6 km/h 3.2 mph /  5.1 km/h 98 % 0.0 in /  0 mm
16:57 5.3 °F /  -14.8 °C 5.0 °F /  -15 °C 1024.9 in /  34703.1 hPa Calm   8.0 mph /  12.9 km/h 98 % 0.0 in /  0 mm
17:02 5.3 °F /  -14.8 °C 5.0 °F /  -15 °C 1024.9 in /  34703.1 hPa WSW 3.2 mph /  5.1 km/h 8.0 mph /  12.9 km/h 98 % 0.0 in /  0 mm
17:07 5.3 °F /  -14.8 °C 5.0 °F /  -15 °C 1024.9 in /  34703.1 hPa SW 8.0 mph /  12.9 km/h 8.0 mph /  12.9 km/h 98 % 0.0 in /  0 mm
17:12 5.4 °F /  -14.8 °C 5.1 °F /  -14.9 °C 1024.9 in /  34703.1 hPa SW 6.4 mph /  10.3 km/h 9.7 mph /  15.6 km/h 98 % 0.0 in /  0 mm
17:17 5.4 °F /  -14.8 °C 5.1 °F /  -14.9 °C 1024.9 in /  34703.1 hPa SW 4.8 mph /  7.7 km/h 12.9 mph /  20.8 km/h 98 % 0.0 in /  0 mm
17:22 5.4 °F /  -14.8 °C 5.1 °F /  -14.9 °C 1024.9 in /  34703.1 hPa SW 1.6 mph /  2.6 km/h 12.9 mph /  20.8 km/h 98 % 0.0 in /  0 mm
17:32 5.4 °F /  -14.8 °C 5.1 °F /  -14.9 °C 1024.6 in /  34693 hPa South 1.6 mph /  2.6 km/h 9.7 mph /  15.6 km/h 98 % 0.0 in /  0 mm
17:42 5.4 °F /  -14.8 °C 5.1 °F /  -14.9 °C 1024.6 in /  34693 hPa WSW 4.8 mph /  7.7 km/h 12.9 mph /  20.8 km/h 98 % 0.0 in /  0 mm
17:52 5.4 °F /  -14.8 °C 5.1 °F /  -14.9 °C 1024.6 in /  34693 hPa SW 4.8 mph /  7.7 km/h 12.9 mph /  20.8 km/h 98 % 0.3 in /  7.62 mm
17:57 5.4 °F /  -14.8 °C 5.1 °F /  -14.9 °C 1024.3 in /  34682.8 hPa South 8.0 mph /  12.9 km/h 12.9 mph /  20.8 km/h 98 % 0.5 in /  12.7 mm
18:02 5.4 °F /  -14.8 °C 5.1 °F /  -14.9 °C 1024.3 in /  34682.8 hPa WSW 6.4 mph /  10.3 km/h 12.9 mph /  20.8 km/h 98 % 0.5 in /  12.7 mm
18:12 5.4 °F /  -14.8 °C 5.1 °F /  -14.9 °C 1024.3 in /  34682.8 hPa SW 6.4 mph /  10.3 km/h 11.3 mph /  18.2 km/h 98 % 0.5 in /  12.7 mm
18:17 5.4 °F /  -14.8 °C 5.1 °F /  -14.9 °C 1024.3 in /  34682.8 hPa SW 8.0 mph /  12.9 km/h 11.3 mph /  18.2 km/h 98 % 0.5 in /  12.7 mm
18:22 5.4 °F /  -14.8 °C 5.1 °F /  -14.9 °C 1024.3 in /  34682.8 hPa SW 9.7 mph /  15.6 km/h 12.9 mph /  20.8 km/h 98 % 0.5 in /  12.7 mm
18:27 5.4 °F /  -14.8 °C 5.1 °F /  -14.9 °C 1023.9 in /  34669.3 hPa SW 6.4 mph /  10.3 km/h 12.9 mph /  20.8 km/h 98 % 0.5 in /  12.7 mm
18:32 5.4 °F /  -14.8 °C 5.1 °F /  -14.9 °C 1023.9 in /  34669.3 hPa SW 6.4 mph /  10.3 km/h 16.1 mph /  25.9 km/h 98 % 0.5 in /  12.7 mm
18:37 5.3 °F /  -14.8 °C 5.0 °F /  -15 °C 1023.6 in /  34659.1 hPa SSW 3.2 mph /  5.1 km/h 16.1 mph /  25.9 km/h 98 % 0.5 in /  12.7 mm
18:47 5.4 °F /  -14.8 °C 5.1 °F /  -14.9 °C 1023.6 in /  34659.1 hPa SW 9.7 mph /  15.6 km/h 12.9 mph /  20.8 km/h 98 % 0.3 in /  7.62 mm
18:52 5.4 °F /  -14.8 °C 5.1 °F /  -14.9 °C 1023.2 in /  34645.6 hPa SW 9.7 mph /  15.6 km/h 14.5 mph /  23.3 km/h 98 % 0.0 in /  0 mm
19:02 5.3 °F /  -14.8 °C 5.0 °F /  -15 °C 1023.2 in /  34645.6 hPa SW 8.0 mph /  12.9 km/h 16.1 mph /  25.9 km/h 98 % 0.0 in /  0 mm
19:07 5.3 °F /  -14.8 °C 5.0 °F /  -15 °C 1023.2 in /  34645.6 hPa WSW 3.2 mph /  5.1 km/h 14.5 mph /  23.3 km/h 98 % 0.0 in /  0 mm
19:12 5.4 °F /  -14.8 °C 5.1 °F /  -14.9 °C 1023.2 in /  34645.6 hPa SW 4.8 mph /  7.7 km/h 12.9 mph /  20.8 km/h 98 % 0.0 in /  0 mm
19:22 5.4 °F /  -14.8 °C 5.1 °F /  -14.9 °C 1023.2 in /  34645.6 hPa SSW 3.2 mph /  5.1 km/h 12.9 mph /  20.8 km/h 98 % 0.0 in /  0 mm
19:27 5.4 °F /  -14.8 °C 5.1 °F /  -14.9 °C 1023.2 in /  34645.6 hPa WSW 4.8 mph /  7.7 km/h 12.9 mph /  20.8 km/h 98 % 0.0 in /  0 mm
19:32 5.4 °F /  -14.8 °C 5.1 °F /  -14.9 °C 1022.9 in /  34635.4 hPa SW 4.8 mph /  7.7 km/h 12.9 mph /  20.8 km/h 98 % 0.0 in /  0 mm
19:42 5.3 °F /  -14.8 °C 5.0 °F /  -15 °C 1022.9 in /  34635.4 hPa SW 3.2 mph /  5.1 km/h 11.3 mph /  18.2 km/h 98 % 0.0 in /  0 mm
19:47 5.3 °F /  -14.8 °C 5.0 °F /  -15 °C 1022.9 in /  34635.4 hPa SW 1.6 mph /  2.6 km/h 8.0 mph /  12.9 km/h 98 % 0.0 in /  0 mm
19:52 5.3 °F /  -14.8 °C 5.0 °F /  -15 °C 1022.9 in /  34635.4 hPa SSW 4.8 mph /  7.7 km/h 8.0 mph /  12.9 km/h 98 % 0.0 in /  0 mm
19:57 5.3 °F /  -14.8 °C 5.0 °F /  -15 °C 1022.6 in /  34625.2 hPa SW 9.7 mph /  15.6 km/h 9.7 mph /  15.6 km/h 98 % 0.0 in /  0 mm
20:02 5.3 °F /  -14.8 °C 5.0 °F /  -15 °C 1022.6 in /  34625.2 hPa SSW 3.2 mph /  5.1 km/h 11.3 mph /  18.2 km/h 98 % 0.0 in /  0 mm
20:07 5.3 °F /  -14.8 °C 5.0 °F /  -15 °C 1022.6 in /  34625.2 hPa SSW 6.4 mph /  10.3 km/h 11.3 mph /  18.2 km/h 98 % 0.0 in /  0 mm
20:12 5.2 °F /  -14.9 °C 4.9 °F /  -15.1 °C 1022.2 in /  34611.7 hPa SSW 3.2 mph /  5.1 km/h 11.3 mph /  18.2 km/h 98 % 0.0 in /  0 mm
20:17 5.3 °F /  -14.8 °C 5.0 °F /  -15 °C 1022.2 in /  34611.7 hPa SW 8.0 mph /  12.9 km/h 9.7 mph /  15.6 km/h 98 % 0.0 in /  0 mm
20:22 5.3 °F /  -14.8 °C 5.0 °F /  -15 °C 1022.2 in /  34611.7 hPa SW 8.0 mph /  12.9 km/h 16.1 mph /  25.9 km/h 98 % 0.0 in /  0 mm
20:32 5.3 °F /  -14.8 °C 5.0 °F /  -15 °C 1021.9 in /  34601.5 hPa SSW 8.0 mph /  12.9 km/h 16.1 mph /  25.9 km/h 98 % 0.0 in /  0 mm
20:37 5.3 °F /  -14.8 °C 5.0 °F /  -15 °C 1021.9 in /  34601.5 hPa South 4.8 mph /  7.7 km/h 14.5 mph /  23.3 km/h 98 % 0.0 in /  0 mm
20:42 5.3 °F /  -14.8 °C 5.0 °F /  -15 °C 1021.6 in /  34591.4 hPa SSW 6.4 mph /  10.3 km/h 14.5 mph /  23.3 km/h 98 % 0.0 in /  0 mm
20:52 5.3 °F /  -14.8 °C 5.0 °F /  -15 °C 1021.6 in /  34591.4 hPa South 6.4 mph /  10.3 km/h 14.5 mph /  23.3 km/h 98 % 0.0 in /  0 mm
21:02 5.3 °F /  -14.8 °C 5.0 °F /  -15 °C 1021.2 in /  34577.8 hPa SW 6.4 mph /  10.3 km/h 14.5 mph /  23.3 km/h 98 % 0.0 in /  0 mm
21:12 5.3 °F /  -14.8 °C 5.0 °F /  -15 °C 1021.2 in /  34577.8 hPa SW 8.0 mph /  12.9 km/h 12.9 mph /  20.8 km/h 98 % 0.3 in /  7.62 mm
21:17 5.3 °F /  -14.8 °C 5.0 °F /  -15 °C 1020.9 in /  34567.7 hPa SW 14.5 mph /  23.3 km/h 14.5 mph /  23.3 km/h 98 % 0.3 in /  7.62 mm
21:22 5.3 °F /  -14.8 °C 5.0 °F /  -15 °C 1020.9 in /  34567.7 hPa SW 8.0 mph /  12.9 km/h 16.1 mph /  25.9 km/h 98 % 0.3 in /  7.62 mm
21:27 5.3 °F /  -14.8 °C 5.0 °F /  -15 °C 1020.9 in /  34567.7 hPa SSW 8.0 mph /  12.9 km/h 16.1 mph /  25.9 km/h 98 % 0.3 in /  7.62 mm
21:32 5.3 °F /  -14.8 °C 5.0 °F /  -15 °C 1020.9 in /  34567.7 hPa SW 3.2 mph /  5.1 km/h 16.1 mph /  25.9 km/h 98 % 0.3 in /  7.62 mm
21:42 5.4 °F /  -14.8 °C 5.1 °F /  -14.9 °C 1020.5 in /  34554.1 hPa SSW 1.6 mph /  2.6 km/h 12.9 mph /  20.8 km/h 98 % 0.3 in /  7.62 mm
21:47 5.4 °F /  -14.8 °C 5.1 °F /  -14.9 °C 1020.5 in /  34554.1 hPa SW 4.8 mph /  7.7 km/h 12.9 mph /  20.8 km/h 98 % 0.3 in /  7.62 mm
21:52 5.4 °F /  -14.8 °C 5.1 °F /  -14.9 °C 1020.5 in /  34554.1 hPa SW 6.4 mph /  10.3 km/h 11.3 mph /  18.2 km/h 98 % 0.3 in /  7.62 mm
22:02 5.4 °F /  -14.8 °C 5.1 °F /  -14.9 °C 1020.2 in /  34544 hPa SW 6.4 mph /  10.3 km/h 16.1 mph /  25.9 km/h 98 % 0.3 in /  7.62 mm
22:07 5.4 °F /  -14.8 °C 5.1 °F /  -14.9 °C 1020.2 in /  34544 hPa SW 9.7 mph /  15.6 km/h 16.1 mph /  25.9 km/h 98 % 0.0 in /  0 mm
22:17 5.4 °F /  -14.8 °C 5.1 °F /  -14.9 °C 1020.2 in /  34544 hPa WSW 4.8 mph /  7.7 km/h 17.7 mph /  28.5 km/h 98 % 0.0 in /  0 mm
22:22 5.4 °F /  -14.8 °C 5.1 °F /  -14.9 °C 1019.9 in /  34533.8 hPa WSW 12.9 mph /  20.8 km/h 17.7 mph /  28.5 km/h 98 % 0.0 in /  0 mm
22:27 5.4 °F /  -14.8 °C 5.1 °F /  -14.9 °C 1019.9 in /  34533.8 hPa SW 12.9 mph /  20.8 km/h 20.9 mph /  33.6 km/h 98 % 0.0 in /  0 mm
22:32 5.4 °F /  -14.8 °C 5.1 °F /  -14.9 °C 1019.9 in /  34533.8 hPa SSW 8.0 mph /  12.9 km/h 20.9 mph /  33.6 km/h 98 % 0.0 in /  0 mm
22:42 5.4 °F /  -14.8 °C 5.1 °F /  -14.9 °C 1019.5 in /  34520.3 hPa SW 8.0 mph /  12.9 km/h 17.7 mph /  28.5 km/h 98 % 0.0 in /  0 mm
22:47 5.3 °F /  -14.8 °C 5.0 °F /  -15 °C 1019.5 in /  34520.3 hPa SW 4.8 mph /  7.7 km/h 17.7 mph /  28.5 km/h 98 % 0.0 in /  0 mm
22:57 5.3 °F /  -14.8 °C 5.0 °F /  -15 °C 1019.2 in /  34510.1 hPa SW 16.1 mph /  25.9 km/h 16.1 mph /  25.9 km/h 98 % 0.3 in /  7.62 mm
23:02 5.4 °F /  -14.8 °C 5.1 °F /  -14.9 °C 1019.2 in /  34510.1 hPa WSW 11.3 mph /  18.2 km/h 19.3 mph /  31.1 km/h 98 % 0.3 in /  7.62 mm
23:12 5.4 °F /  -14.8 °C 5.1 °F /  -14.9 °C 1019.2 in /  34510.1 hPa SW 6.4 mph /  10.3 km/h 22.5 mph /  36.2 km/h 98 % 0.3 in /  7.62 mm
23:17 5.4 °F /  -14.8 °C 5.1 °F /  -14.9 °C 1018.8 in /  34496.6 hPa WSW 8.0 mph /  12.9 km/h 22.5 mph /  36.2 km/h 98 % 0.3 in /  7.62 mm
23:27 5.4 °F /  -14.8 °C 5.1 °F /  -14.9 °C 1018.8 in /  34496.6 hPa WSW 14.5 mph /  23.3 km/h 17.7 mph /  28.5 km/h 98 % 0.5 in /  12.7 mm
23:32 5.4 °F /  -14.8 °C 5.1 °F /  -14.9 °C 1018.8 in /  34496.6 hPa SW 4.8 mph /  7.7 km/h 17.7 mph /  28.5 km/h 98 % 0.5 in /  12.7 mm
23:37 5.4 °F /  -14.8 °C 5.1 °F /  -14.9 °C 1018.5 in /  34486.4 hPa SW 3.2 mph /  5.1 km/h 17.7 mph /  28.5 km/h 98 % 0.5 in /  12.7 mm
23:42 5.4 °F /  -14.8 °C 5.1 °F /  -14.9 °C 1018.5 in /  34486.4 hPa SSW 6.4 mph /  10.3 km/h 16.1 mph /  25.9 km/h 98 % 0.5 in /  12.7 mm
23:47 5.4 °F /  -14.8 °C 5.1 °F /  -14.9 °C 1018.5 in /  34486.4 hPa WSW 4.8 mph /  7.7 km/h 16.1 mph /  25.9 km/h 98 % 0.5 in /  12.7 mm
23:52 5.4 °F /  -14.8 °C 5.1 °F /  -14.9 °C 1018.5 in /  34486.4 hPa SW 8.0 mph /  12.9 km/h 14.5 mph /  23.3 km/h 98 % 0.5 in /  12.7 mm
23:57 5.5 °F /  -14.7 °C 5.2 °F /  -14.9 °C 1018.2 in /  34476.3 hPa WSW 8.0 mph /  12.9 km/h 16.1 mph /  25.9 km/h 98 % 0.5 in /  12.7 mm
Meteo18
Compliments of Weather Underground - 4 mb

Script developed by  Jim McMurry - jmcmurry@mwt.net Adapted for the template by  Wim van der Kuil - Leuven-Template.eu

You find our weather info also at:

European Weather Network

Weather Underground

Equipment we use:

Weather-station
Davis Vue

Weather-program
Meteobridge

Weather-server
Raspberry PI 2 B+

Provider
1 and 1

Davis Vue

Meteobridge

Raspberry PI 2 B+

1 and 1